Time;durP1;ratioP1;P1;durP2;ratioP2;P2;SDS_P1;SDS_P2;PMS_P1;PMS_P2;Temp;Humidity;BMP_temperature;BMP_pressure;BME280_temperature;BME280_humidity;BME280_pressure;Samples;Min_cycle;Max_cycle;Signal;HPM_P1;HPM_P2
2022/04/26 03:37:50;;;;;;;8.30;4.10;;;;;;;6.87;78.39;101507.69;5053502;28;20106;-88
2022/04/26 03:40:15;;;;;;;7.23;4.33;;;;;;;6.86;78.55;101506.00;5054187;28;20017;-89
2022/04/26 03:42:40;;;;;;;7.43;4.10;;;;;;;6.89;78.49;101494.81;5053822;28;20029;-88
2022/04/26 03:45:06;;;;;;;7.05;3.95;;;;;;;6.89;78.50;101500.00;5053359;28;20075;-89
2022/04/26 03:47:31;;;;;;;6.10;3.70;;;;;;;6.89;78.44;101508.59;5054042;28;20504;-89
2022/04/26 03:49:56;;;;;;;6.63;3.95;;;;;;;6.90;79.01;101510.31;5053876;28;20036;-88
2022/04/26 03:52:22;;;;;;;8.53;3.93;;;;;;;6.88;78.74;101509.44;5053735;28;20021;-88
2022/04/26 03:54:47;;;;;;;7.03;3.93;;;;;;;6.87;79.12;101510.28;5053726;28;20025;-88
2022/04/26 03:57:12;;;;;;;9.68;4.38;;;;;;;6.86;79.05;101515.44;5053769;28;20059;-89
2022/04/26 03:59:37;;;;;;;7.35;3.92;;;;;;;6.88;79.45;101516.31;5053570;28;20074;-88
2022/04/26 04:02:03;;;;;;;6.63;3.92;;;;;;;6.89;78.95;101512.88;5053877;28;20484;-88
2022/04/26 04:04:29;;;;;;;9.30;3.90;;;;;;;6.89;79.35;101511.16;5053611;28;20457;-88
2022/04/26 04:06:54;;;;;;;6.40;3.67;;;;;;;6.92;79.56;101520.66;5052873;28;20511;-88
2022/04/26 04:09:19;;;;;;;4.90;3.40;;;;;;;6.92;79.65;101521.53;5053470;28;20033;-89
2022/04/26 04:11:44;;;;;;;7.45;3.70;;;;;;;6.93;79.21;101519.78;5053605;28;20025;-88
2022/04/26 04:14:10;;;;;;;7.05;4.03;;;;;;;6.94;79.33;101524.09;5053321;28;20619;-89
2022/04/26 04:16:35;;;;;;;6.70;3.85;;;;;;;6.95;79.56;101526.72;5053371;28;20075;-88
2022/04/26 04:19:18;;;;;;;7.43;3.95;;;;;;;6.95;80.14;101524.16;5053128;28;20017;-88
2022/04/26 04:21:45;;;;;;;7.88;3.60;;;;;;;6.95;79.39;101526.72;5053273;28;20029;-89
2022/04/26 04:24:14;;;;;;;7.82;4.25;;;;;;;6.95;80.38;101538.75;5053298;28;20548;-89
2022/04/26 04:26:40;;;;;;;6.07;4.00;;;;;;;6.94;79.89;101540.47;5052596;28;20033;-89
2022/04/26 04:29:05;;;;;;;6.13;3.70;;;;;;;6.94;79.55;101535.31;5053360;28;20071;-90
2022/04/26 04:31:31;;;;;;;7.20;3.85;;;;;;;6.97;79.60;101543.94;5053047;28;20047;-89
2022/04/26 04:33:56;;;;;;;7.70;4.15;;;;;;;6.96;79.75;101540.47;5053016;28;20046;-89
2022/04/26 04:36:21;;;;;;;5.97;3.60;;;;;;;6.97;79.47;101542.22;5052627;28;20075;-89
2022/04/26 04:38:47;;;;;;;5.18;3.42;;;;;;;6.98;79.92;101548.25;5053052;28;20469;-88
2022/04/26 04:41:12;;;;;;;5.17;3.40;;;;;;;6.98;80.32;101550.84;5052913;28;20028;-89
2022/04/26 04:43:37;;;;;;;5.23;3.30;;;;;;;6.98;79.60;101545.69;5052958;28;20029;-89
2022/04/26 04:46:03;;;;;;;6.55;3.53;;;;;;;7.00;79.68;101550.00;5053481;28;20052;-89
2022/04/26 04:48:28;;;;;;;7.07;4.00;;;;;;;6.95;79.79;101547.38;5052999;28;20070;-89
2022/04/26 04:50:53;;;;;;;7.97;4.38;;;;;;;6.95;81.12;101556.81;5052922;28;20028;-89
2022/04/26 04:53:20;;;;;;;6.80;4.00;;;;;;;7.00;79.29;101564.59;5053067;28;20029;-87
2022/04/26 04:55:45;;;;;;;6.60;3.92;;;;;;;6.97;79.97;101567.16;5052282;28;20032;-89
2022/04/26 04:58:10;;;;;;;6.93;4.07;;;;;;;7.02;80.10;101568.06;5053208;28;20025;-88
2022/04/26 05:00:36;;;;;;;9.70;4.87;;;;;;;6.99;79.68;101573.19;5053163;28;20045;-89
2022/04/26 05:03:01;;;;;;;10.50;5.05;;;;;;;6.94;80.50;101574.03;5052605;28;20024;-90
2022/04/26 05:05:26;;;;;;;8.07;4.83;;;;;;;6.92;80.28;101575.72;5053446;28;20037;-90
2022/04/26 05:07:52;;;;;;;5.60;3.78;;;;;;;6.96;80.08;101581.78;5052657;28;20053;-90
2022/04/26 05:10:18;;;;;;;8.52;4.35;;;;;;;6.97;80.49;101582.66;5052993;28;20473;-90
2022/04/26 05:12:44;;;;;;;8.00;4.23;;;;;;;6.98;80.70;101582.66;5052897;28;20051;-88
2022/04/26 05:15:09;;;;;;;8.95;4.50;;;;;;;6.97;80.84;101591.25;5052955;28;20022;-90
2022/04/26 05:17:34;;;;;;;6.47;4.07;;;;;;;6.97;81.13;101591.25;5053168;28;20024;-90
2022/04/26 05:20:00;;;;;;;7.40;4.10;;;;;;;6.99;80.56;101594.72;5053075;28;20112;-90
2022/04/26 05:22:26;;;;;;;5.97;3.83;;;;;;;7.01;80.40;101600.78;5053187;28;20067;-90
2022/04/26 05:24:56;;;;;;;6.82;4.10;;;;;;;7.02;80.74;101599.94;5053149;28;20416;-90
2022/04/26 05:27:26;;;;;;;6.28;3.80;;;;;;;7.03;80.85;101601.66;5053361;28;20446;-90
2022/04/26 05:29:52;;;;;;;6.80;4.03;;;;;;;7.04;81.35;101602.50;5053341;28;20021;-89
2022/04/26 05:32:21;;;;;;;7.75;4.28;;;;;;;7.05;80.86;101605.09;5053282;28;20032;-91
2022/04/26 05:34:47;;;;;;;8.73;4.70;;;;;;;7.04;81.68;101608.53;5053621;28;20024;-89
2022/04/26 05:37:12;;;;;;;9.20;5.00;;;;;;;7.06;81.20;101612.00;5052631;28;20166;-88
2022/04/26 05:39:37;;;;;;;9.90;5.60;;;;;;;7.05;81.00;101612.84;5052139;28;20173;-88
2022/04/26 05:42:03;;;;;;;8.83;4.93;;;;;;;7.09;80.47;101617.22;5052206;28;20028;-88
2022/04/26 05:44:28;;;;;;;11.73;5.30;;;;;;;7.10;81.37;101613.78;5051670;28;20033;-88
2022/04/26 05:46:54;;;;;;;9.23;4.60;;;;;;;7.16;80.79;101615.56;5054973;28;20079;-89
2022/04/26 05:49:19;;;;;;;11.80;5.30;;;;;;;7.17;80.80;101612.13;5058496;28;20059;-88
2022/04/26 05:51:44;;;;;;;7.73;4.40;;;;;;;7.23;80.44;101614.78;5055592;28;20487;-88
2022/04/26 05:54:09;;;;;;;8.03;4.53;;;;;;;7.26;80.67;101616.53;5055935;28;20029;-88
2022/04/26 05:56:35;;;;;;;9.35;5.20;;;;;;;7.31;80.79;101609.69;5055833;28;20021;-88
2022/04/26 05:59:01;;;;;;;9.90;5.00;;;;;;;7.30;80.79;101620.03;5055065;28;20440;-88
2022/04/26 06:01:26;;;;;;;9.50;5.07;;;;;;;7.36;81.05;101626.13;5054696;28;20058;-88
2022/04/26 06:03:51;;;;;;;10.27;5.63;;;;;;;7.35;80.89;101626.09;5055120;28;20029;-88
2022/04/26 06:06:16;;;;;;;10.20;5.93;;;;;;;7.32;80.75;101624.34;5055148;28;20045;-88
2022/04/26 06:08:42;;;;;;;11.10;6.10;;;;;;;7.33;80.97;101628.66;5055405;28;20412;-87
2022/04/26 06:11:08;;;;;;;11.88;5.82;;;;;;;7.35;81.22;101632.13;5055452;28;20013;-88
2022/04/26 06:13:33;;;;;;;11.97;5.80;;;;;;;7.41;80.97;101632.19;5054438;28;20435;-87
2022/04/26 06:15:58;;;;;;;10.23;6.00;;;;;;;7.46;81.03;101632.22;5055236;28;20064;-85
2022/04/26 06:18:24;;;;;;;12.70;5.63;;;;;;;7.50;80.63;101638.28;5054945;28;20093;-83
2022/04/26 06:20:49;;;;;;;9.15;5.68;;;;;;;7.51;81.48;101640.91;5053238;28;20025;-83
2022/04/26 06:23:14;;;;;;;11.73;6.00;;;;;;;7.54;80.39;101645.22;5054122;28;20061;-84
2022/04/26 06:25:39;;;;;;;15.23;7.05;;;;;;;7.53;80.89;101644.38;5054103;28;20389;-84
2022/04/26 06:28:06;;;;;;;11.70;6.57;;;;;;;7.53;80.71;101644.38;5054635;28;20032;-83
2022/04/26 06:30:31;;;;;;;11.80;6.40;;;;;;;7.60;81.01;101645.28;5055068;28;20021;-84
2022/04/26 06:32:57;;;;;;;10.30;5.87;;;;;;;7.66;80.92;101644.47;5054070;28;20287;-84
2022/04/26 06:35:22;;;;;;;13.23;6.80;;;;;;;7.67;80.39;101641.91;5054817;28;20025;-83
2022/04/26 06:37:48;;;;;;;11.88;6.18;;;;;;;7.71;80.74;101648.81;5054485;28;20134;-83
2022/04/26 06:40:14;;;;;;;13.57;7.00;;;;;;;7.73;80.28;101657.47;5053452;28;20114;-85
2022/04/26 06:42:39;;;;;;;13.63;6.97;;;;;;;7.80;80.18;101658.41;5054252;28;20572;-83
2022/04/26 06:45:17;;;;;;;15.13;7.93;;;;;;;7.79;80.21;101661.81;5054871;28;20040;-84
2022/04/26 06:47:54;;;;;;;15.68;7.00;;;;;;;7.82;80.53;101653.25;5053541;28;20033;-84
2022/04/26 06:50:19;;;;;;;17.52;8.07;;;;;;;7.92;79.35;101656.78;5054216;28;20427;-84
2022/04/26 06:52:50;;;;;;;14.70;8.20;;;;;;;7.89;79.60;101661.06;5054119;28;20021;-82
2022/04/26 06:55:16;;;;;;;13.90;7.93;;;;;;;7.96;79.75;101667.16;5053672;28;20381;-84
2022/04/26 06:57:41;;;;;;;13.80;7.53;;;;;;;8.02;80.13;101663.75;5054087;28;20017;-83
2022/04/26 07:00:08;;;;;;;12.52;7.13;;;;;;;8.16;79.57;101671.66;5053205;28;20032;-84
2022/04/26 07:02:33;;;;;;;15.73;8.02;;;;;;;8.27;78.68;101675.19;5052979;28;20124;-84
2022/04/26 07:04:59;;;;;;;18.00;8.97;;;;;;;8.27;78.43;101675.19;5054123;28;20021;-83
2022/04/26 07:07:24;;;;;;;15.40;8.52;;;;;;;8.31;77.93;101676.91;5053830;28;20049;-83
2022/04/26 07:09:50;;;;;;;16.50;8.10;;;;;;;8.37;78.05;101675.25;5053170;28;20045;-83
2022/04/26 07:12:15;;;;;;;16.33;8.67;;;;;;;8.43;77.67;101676.16;5054246;28;20036;-83
2022/04/26 07:14:40;;;;;;;16.17;8.87;;;;;;;8.50;76.49;101682.25;5053674;28;20507;-85
2022/04/26 07:17:06;;;;;;;14.25;7.90;;;;;;;8.59;77.28;101676.28;5053438;28;20021;-82
2022/04/26 07:19:35;;;;;;;13.00;6.82;;;;;;;8.88;77.10;101676.44;5053544;28;20477;-82
2022/04/26 07:22:03;;;;;;;15.98;7.78;;;;;;;9.16;76.10;101678.28;5052764;28;20021;-82
2022/04/26 07:24:30;;;;;;;17.13;8.35;;;;;;;9.26;74.72;101668.00;5054004;28;20032;-83
2022/04/26 07:26:55;;;;;;;15.93;8.38;;;;;;;9.28;74.66;101678.34;5052796;28;20495;-82
2022/04/26 07:29:20;;;;;;;13.17;7.47;;;;;;;9.40;73.82;101682.72;5052940;28;20037;-82
2022/04/26 07:31:46;;;;;;;15.60;8.47;;;;;;;9.19;72.25;101686.94;5053412;28;20487;-82
2022/04/26 07:34:20;;;;;;;14.43;7.70;;;;;;;9.17;72.67;101690.38;5053660;28;20021;-82
2022/04/26 07:36:45;;;;;;;14.10;7.20;;;;;;;9.21;73.29;101692.13;5052514;28;20031;-82
2022/04/26 07:39:11;;;;;;;14.30;7.40;;;;;;;9.23;73.52;101695.59;5053671;28;20024;-81
2022/04/26 07:41:36;;;;;;;16.48;8.25;;;;;;;9.30;73.08;101693.88;5053698;28;20028;-82
2022/04/26 07:44:02;;;;;;;14.67;7.70;;;;;;;9.34;72.60;101699.09;5052141;28;20491;-82
2022/04/26 07:46:28;;;;;;;15.27;7.77;;;;;;;9.35;72.18;101693.03;5053072;28;20551;-82
2022/04/26 07:48:54;;;;;;;13.63;7.23;;;;;;;9.35;71.62;101699.97;5053068;28;20020;-82
2022/04/26 07:51:19;;;;;;;13.43;7.10;;;;;;;9.40;72.35;101701.69;5052573;28;20029;-82
2022/04/26 07:53:45;;;;;;;16.57;8.30;;;;;;;9.44;71.59;101705.16;5053259;28;20017;-82
2022/04/26 07:56:10;;;;;;;11.07;6.80;;;;;;;9.47;72.49;101710.38;5053448;28;20021;-82
2022/04/26 07:58:35;;;;;;;11.07;6.28;;;;;;;9.59;72.26;101709.53;5052487;28;20020;-82
2022/04/26 08:01:02;;;;;;;11.63;6.43;;;;;;;9.72;71.94;101708.69;5052532;28;20039;-82
2022/04/26 08:03:28;;;;;;;12.82;6.78;;;;;;;9.78;71.87;101714.78;5053153;28;20405;-82
2022/04/26 08:05:53;;;;;;;12.57;6.40;;;;;;;9.86;71.79;101716.50;5051815;28;20028;-82
2022/04/26 08:08:19;;;;;;;14.50;7.47;;;;;;;9.98;70.29;101722.56;5053176;28;20508;-82
2022/04/26 08:10:44;;;;;;;14.63;7.30;;;;;;;9.89;70.26;101733.81;5052148;28;20500;-82
2022/04/26 08:13:09;;;;;;;15.63;7.57;;;;;;;9.71;70.72;101726.84;5052257;28;20029;-82
2022/04/26 08:15:35;;;;;;;14.83;7.53;;;;;;;9.63;70.96;101729.41;5052745;28;20051;-82
2022/04/26 08:18:00;;;;;;;12.60;6.93;;;;;;;9.70;71.61;101728.56;5052804;28;20104;-83
2022/04/26 08:20:26;;;;;;;13.97;7.03;;;;;;;9.79;70.35;101738.09;5052110;28;20029;-83
2022/04/26 08:22:51;;;;;;;13.13;6.57;;;;;;;9.74;69.30;101745.88;5052837;28;20028;-84
2022/04/26 08:28:01;;;;;;;14.13;6.88;;;;;;;9.66;70.40;101741.50;5052739;28;20435;-84
2022/04/26 08:30:27;;;;;;;13.18;6.60;;;;;;;9.66;69.00;101755.34;5052760;28;20021;-83
2022/04/26 08:32:52;;;;;;;11.87;6.33;;;;;;;9.74;69.73;101748.47;5051576;28;20033;-83
2022/04/26 08:35:21;;;;;;;10.87;5.80;;;;;;;9.77;69.70;101755.38;5051906;28;20121;-83
2022/04/26 08:37:46;;;;;;;13.55;6.40;;;;;;;9.84;69.32;101756.25;5052557;28;20028;-83
2022/04/26 08:40:11;;;;;;;10.87;5.60;;;;;;;9.96;69.43;101755.44;5052024;28;20029;-84
2022/04/26 08:42:38;;;;;;;12.17;5.97;;;;;;;9.89;69.22;101752.81;5052151;28;20025;-83
2022/04/26 08:45:06;;;;;;;13.55;5.93;;;;;;;9.94;69.22;101763.19;5052871;28;20064;-84
2022/04/26 08:53:17;;;;;;;13.17;6.03;;;;;;;10.21;68.55;101758.91;5052951;28;20039;-86
2022/04/26 08:55:45;;;;;;;12.13;5.57;;;;;;;10.34;68.29;101767.56;5047026;28;20329;-85
2022/04/26 08:58:13;;;;;;;12.25;5.88;;;;;;;10.52;67.39;101760.69;5050556;28;20107;-84
2022/04/26 09:00:40;;;;;;;14.38;6.60;;;;;;;10.65;66.00;101763.28;5052976;28;21137;-84
2022/04/26 09:03:07;;;;;;;;;;;;;;;10.86;66.75;101771.91;5053038;28;20056;-84
2022/04/26 09:05:33;;;;;;;13.20;6.20;;;;;;;11.01;65.82;101759.75;5051746;28;20341;-84
2022/04/26 09:07:58;;;;;;;10.70;5.30;;;;;;;11.23;66.14;101773.53;5051145;28;20144;-84
2022/04/26 09:10:25;;;;;;;9.03;5.03;;;;;;;11.47;65.67;101764.81;5051510;28;20047;-84
2022/04/26 09:13:20;;;;;;;8.13;4.60;;;;;;;11.86;64.92;101765.47;5049474;28;20043;-84
2022/04/26 09:15:51;;;;;;;8.82;4.97;;;;;;;12.14;63.24;101770.53;5048671;28;20040;-85
2022/04/26 09:18:27;;;;;;;11.93;5.97;;;;;;;11.92;61.49;101763.72;5051619;28;20033;-85
2022/04/26 09:20:53;;;;;;;10.07;5.43;;;;;;;11.87;62.41;101774.16;5051933;28;20029;-85
2022/04/26 09:23:26;;;;;;;12.48;5.55;;;;;;;11.51;62.20;101774.31;5055337;28;20028;-85
2022/04/26 09:28:24;;;;;;;12.32;5.80;;;;;;;11.23;62.74;101779.63;5053233;28;20045;-85
2022/04/26 09:30:50;;;;;;;11.05;5.28;;;;;;;11.40;62.41;101784.75;5055165;28;20025;-85
2022/04/26 09:33:39;;;;;;;10.40;4.53;;;;;;;11.51;61.95;101783.84;5055534;28;20392;-84
2022/04/26 09:36:09;;;;;;;8.90;5.05;;;;;;;11.53;60.14;101785.56;5055608;28;20424;-89
2022/04/26 09:38:34;;;;;;;7.57;4.63;;;;;;;11.64;60.32;101785.53;5056142;28;20052;-86
2022/04/26 09:41:01;;;;;;;11.10;5.20;;;;;;;11.79;59.41;101786.31;5055742;28;20028;-86
2022/04/26 09:43:28;;;;;;;10.23;4.65;;;;;;;11.89;59.93;101793.19;5054803;28;20377;-85
2022/04/26 09:45:56;;;;;;;8.70;4.80;;;;;;;12.09;58.70;101793.09;5055610;28;20051;-84
2022/04/26 09:48:29;;;;;;;9.98;5.00;;;;;;;11.95;55.19;101790.56;5056078;28;20056;-85
2022/04/26 09:50:57;;;;;;;10.40;4.85;;;;;;;11.89;57.71;101796.66;5055024;28;20120;-85
2022/04/26 09:53:22;;;;;;;9.45;4.88;;;;;;;12.00;57.00;101800.97;5056096;28;20434;-85
2022/04/26 09:55:48;;;;;;;10.67;4.80;;;;;;;12.15;58.14;101800.88;5055645;28;20053;-83
2022/04/26 09:58:21;;;;;;;10.40;4.83;;;;;;;12.30;54.68;101799.91;5055092;28;20031;-85
2022/04/26 10:00:49;;;;;;;11.07;4.78;;;;;;;12.42;56.04;101800.69;5055318;28;20075;-84
2022/04/26 10:03:19;;;;;;;9.93;4.88;;;;;;;12.40;54.37;101807.66;5055536;28;20500;-85
2022/04/26 10:05:49;;;;;;;8.82;4.40;;;;;;;12.54;55.45;101805.81;5054320;28;20465;-84
2022/04/26 10:08:16;;;;;;;6.95;4.00;;;;;;;12.76;55.43;101810.84;5055355;28;20033;-86
2022/04/26 10:10:43;;;;;;;9.00;4.55;;;;;;;12.90;54.65;101814.16;5054529;28;20582;-84
2022/04/26 10:15:55;;;;;;;;;;;;;;;13.25;52.93;101812.94;5055304;28;20039;-86
2022/04/26 10:18:45;;;;;;;7.82;3.97;;;;;;;13.30;54.89;101812.88;5054657;28;19991;-85
2022/04/26 10:21:12;;;;;;;7.85;4.20;;;;;;;13.27;52.37;101819.00;5055136;28;20028;-85
2022/04/26 10:24:02;;;;;;;8.52;4.45;;;;;;;13.21;53.33;101824.28;5054870;28;20471;-84
2022/04/26 10:26:28;;;;;;;7.75;3.90;;;;;;;13.24;52.85;101826.84;5054285;28;20081;-85
2022/04/26 10:29:00;;;;;;;6.53;4.07;;;;;;;13.23;52.22;101832.09;5054840;28;20400;-84
2022/04/26 10:31:35;;;;;;;8.45;4.60;;;;;;;13.20;50.46;101838.22;5054894;28;20427;-84
2022/04/26 10:34:14;;;;;;;7.97;3.83;;;;;;;13.27;52.97;101829.44;5052906;28;20475;-83
2022/04/26 10:36:39;;;;;;;7.93;4.20;;;;;;;13.29;51.64;101832.88;5054559;28;20469;-83
2022/04/26 10:39:05;;;;;;;6.47;4.20;;;;;;;13.34;51.71;101827.63;5053915;28;20032;-83
2022/04/26 10:41:41;;;;;;;9.73;4.50;;;;;;;13.38;48.94;101833.66;5054990;28;20065;-84
2022/04/26 10:46:42;;;;;;;7.72;4.35;;;;;;;13.55;50.59;101839.59;5053954;28;20032;-83
2022/04/26 10:49:31;;;;;;;8.35;4.13;;;;;;;13.46;49.89;101833.63;5054884;28;20416;-84
2022/04/26 10:52:02;;;;;;;8.75;4.55;;;;;;;13.64;50.27;101840.38;5054447;28;20037;-83
2022/04/26 10:54:55;;;;;;;10.95;4.50;;;;;;;13.75;49.60;101844.56;5053970;28;20029;-83
2022/04/26 10:57:41;;;;;;;9.38;4.55;;;;;;;13.52;48.79;101846.56;5054852;28;20114;-84
2022/04/26 11:00:11;;;;;;;9.40;4.68;;;;;;;13.39;48.64;101851.03;5053883;28;20036;-83
2022/04/26 11:02:40;;;;;;;10.52;4.22;;;;;;;13.29;48.54;101842.44;5053580;28;20091;-83
2022/04/26 11:05:11;;;;;;;8.10;4.07;;;;;;;13.44;49.38;101846.69;5054410;28;20024;-83
2022/04/26 11:07:56;;;;;;;5.30;3.58;;;;;;;13.66;51.46;101846.44;5053289;28;20090;-82
2022/04/26 11:10:24;;;;;;;7.00;4.20;;;;;;;13.88;49.20;101845.28;5053791;28;20426;-84
2022/04/26 11:12:52;;;;;;;6.07;3.70;;;;;;;14.09;50.68;101843.25;5053890;28;20289;-83
2022/04/26 11:15:23;;;;;;;5.88;3.90;;;;;;;14.39;46.82;101843.69;5053465;28;20033;-84
2022/04/26 11:17:50;;;;;;;8.20;4.32;;;;;;;14.51;46.59;101850.47;5053385;28;20029;-83
2022/04/26 11:20:17;;;;;;;10.07;4.50;;;;;;;14.56;48.48;101837.34;5053714;28;20017;-83
2022/04/26 11:22:57;;;;;;;9.55;4.70;;;;;;;14.63;46.91;101849.41;5052945;28;20032;-84
2022/04/26 11:28:10;;;;;;;6.28;3.80;;;;;;;14.82;47.68;101837.78;5053021;28;20084;-83
2022/04/26 11:30:38;;;;;;;9.70;4.75;;;;;;;14.65;48.33;101840.66;5053847;28;20471;-83
2022/04/26 11:33:05;;;;;;;6.15;4.00;;;;;;;14.85;48.94;101846.47;5053958;28;20040;-84
2022/04/26 11:35:34;;;;;;;10.65;4.47;;;;;;;15.10;47.66;101841.66;5053202;28;20064;-83
2022/04/26 11:38:14;;;;;;;9.38;5.05;;;;;;;14.74;45.62;101844.91;5052893;28;20032;-84
2022/04/26 11:40:54;;;;;;;12.30;4.70;;;;;;;14.63;47.88;101842.44;5033701;28;20034;-83
2022/04/26 11:43:23;;;;;;;9.70;5.15;;;;;;;14.56;46.49;101842.56;5033085;28;20485;-82
2022/04/26 11:45:53;;;;;;;10.25;5.00;;;;;;;14.54;46.26;101855.63;5033299;28;20099;-84
2022/04/26 11:48:21;;;;;;;8.77;4.70;;;;;;;14.70;47.20;101851.06;5033709;28;20033;-83
2022/04/26 11:50:48;;;;;;;6.15;3.90;;;;;;;14.94;47.15;101846.31;5049612;28;20063;-84
2022/04/26 11:53:16;;;;;;;7.50;4.35;;;;;;;14.92;43.39;101848.94;5053497;28;20378;-83
2022/04/26 11:55:46;;;;;;;10.05;4.68;;;;;;;14.71;44.49;101844.94;5053243;28;20033;-83
2022/04/26 11:58:19;;;;;;;7.13;4.30;;;;;;;14.88;43.39;101865.56;5052794;28;20021;-84
2022/04/26 12:01:03;;;;;;;7.97;4.70;;;;;;;15.00;44.62;101858.41;5053163;28;20388;-84
2022/04/26 12:03:40;;;;;;;7.30;4.50;;;;;;;15.19;40.99;101862.44;5052598;28;20025;-85
2022/04/26 12:06:07;;;;;;;6.72;3.80;;;;;;;15.21;43.51;101862.41;5053438;28;20081;-83
2022/04/26 12:08:40;;;;;;;7.55;3.97;;;;;;;15.33;41.89;101872.63;5052840;28;20040;-82
2022/04/26 12:11:26;;;;;;;6.43;4.18;;;;;;;15.36;41.78;101863.84;5052398;28;20051;-85
2022/04/26 12:14:07;;;;;;;6.30;4.10;;;;;;;15.35;43.54;101865.63;5052615;28;20040;-85
2022/04/26 12:16:39;;;;;;;9.15;4.43;;;;;;;15.47;41.25;101876.75;5053359;28;20123;-86
2022/04/26 12:19:05;;;;;;;6.53;3.97;;;;;;;15.60;40.69;101859.88;5054966;28;20047;-82
2022/04/26 12:21:51;;;;;;;6.10;3.70;;;;;;;15.86;42.24;101864.63;5054241;28;20017;-82
2022/04/26 12:24:22;;;;;;;6.35;3.90;;;;;;;16.00;40.57;101859.09;5051098;28;20025;-82
2022/04/26 12:27:01;;;;;;;6.15;3.95;;;;;;;15.94;40.30;101853.13;5052171;28;20114;-80
2022/04/26 12:29:36;;;;;;;7.15;3.65;;;;;;;16.08;41.00;101858.94;5053153;28;20112;-80
2022/04/26 12:32:05;;;;;;;6.50;3.70;;;;;;;16.09;41.37;101858.03;5052204;28;20039;-81
2022/04/26 12:34:30;;;;;;;6.50;4.15;;;;;;;15.82;39.71;101865.56;5052809;28;20029;-81
2022/04/26 12:36:57;;;;;;;6.43;3.77;;;;;;;15.38;39.75;101865.53;5052191;28;20095;-80
2022/04/26 12:39:24;;;;;;;7.95;3.67;;;;;;;15.07;40.81;101860.88;5051939;28;20025;-81
2022/04/26 12:41:52;;;;;;;8.85;4.30;;;;;;;14.45;41.03;101861.88;5052483;28;20029;-81
2022/04/26 12:44:18;;;;;;;6.88;4.00;;;;;;;14.42;41.76;101861.03;5052838;28;20029;-80
2022/04/26 12:46:45;;;;;;;7.68;3.65;;;;;;;14.51;41.70;101863.53;5051733;28;20056;-80
2022/04/26 12:51:57;;;;;;;6.82;3.90;;;;;;;14.49;41.65;101862.69;5052575;28;20121;-81
2022/04/26 12:54:22;;;;;;;7.07;4.18;;;;;;;14.39;42.85;101854.13;5051643;28;20032;-79
2022/04/26 12:57:03;;;;;;;6.57;3.80;;;;;;;14.40;42.78;101850.63;5053596;28;20037;-81
2022/04/26 12:59:36;;;;;;;8.90;4.50;;;;;;;14.46;43.19;101852.28;5056190;28;20090;-80
2022/04/26 13:02:02;;;;;;;6.78;3.80;;;;;;;14.50;42.81;101860.03;5056678;28;20103;-80
2022/04/26 13:04:27;;;;;;;4.33;3.10;;;;;;;14.78;44.49;101858.78;5056809;28;20035;-79
2022/04/26 13:06:55;;;;;;;6.03;3.70;;;;;;;15.20;42.60;101855.44;5055252;28;20384;-80
2022/04/26 13:09:21;;;;;;;7.55;4.18;;;;;;;15.35;41.98;101854.28;5056705;28;20108;-80
2022/04/26 13:11:48;;;;;;;6.40;4.10;;;;;;;15.40;43.47;101853.31;5056407;28;20057;-80
2022/04/26 13:14:13;;;;;;;6.07;3.92;;;;;;;15.52;41.41;101857.44;5055860;28;20078;-80
2022/04/26 13:16:39;;;;;;;5.13;3.57;;;;;;;15.59;42.08;101864.28;5056333;28;20029;-81
2022/04/26 13:19:04;;;;;;;8.33;3.90;;;;;;;15.50;42.31;101858.34;5056462;28;20065;-81
2022/04/26 13:21:29;;;;;;;5.70;3.77;;;;;;;15.46;42.88;101864.56;5055526;28;20021;-82
2022/04/26 13:23:57;;;;;;;8.57;4.47;;;;;;;15.36;41.90;101867.34;5057067;28;20432;-83
2022/04/26 13:26:22;;;;;;;9.32;4.55;;;;;;;14.97;43.07;101860.16;5055806;28;20095;-83
2022/04/26 13:28:48;;;;;;;7.67;4.40;;;;;;;14.60;44.32;101858.16;5055340;28;20021;-82
2022/04/26 13:31:13;;;;;;;12.40;3.90;;;;;;;14.52;44.92;101855.66;5056583;28;20036;-83
2022/04/26 13:33:39;;;;;;;10.57;4.67;;;;;;;14.54;44.03;101868.69;5055926;28;20033;-82
2022/04/26 13:36:04;;;;;;;9.30;4.20;;;;;;;14.71;43.85;101858.00;5055660;28;20032;-82
2022/04/26 13:38:29;;;;;;;7.00;4.07;;;;;;;14.94;44.22;101856.75;5056208;28;20032;-83
2022/04/26 13:40:55;;;;;;;8.10;4.07;;;;;;;15.16;45.18;101853.75;5055884;28;20036;-81
2022/04/26 13:43:23;;;;;;;7.60;3.60;;;;;;;15.43;43.77;101857.59;5055282;28;20024;-81
2022/04/26 13:45:49;;;;;;;7.75;4.13;;;;;;;15.50;43.82;101864.47;5055786;28;20025;-81
2022/04/26 13:48:14;;;;;;;7.83;4.30;;;;;;;15.54;42.65;101860.03;5055942;28;20028;-81
2022/04/26 13:50:39;;;;;;;9.53;4.40;;;;;;;15.49;42.16;101873.19;5054880;28;20021;-81
2022/04/26 13:53:06;;;;;;;8.07;4.70;;;;;;;15.34;43.00;101863.91;5055813;28;20082;-82
2022/04/26 13:55:31;;;;;;;6.05;3.72;;;;;;;15.44;42.94;101867.19;5055779;28;20017;-82
2022/04/26 13:57:56;;;;;;;7.03;3.73;;;;;;;15.76;42.00;101865.69;5054240;28;20496;-82
2022/04/26 14:00:22;;;;;;;9.93;4.00;;;;;;;15.95;41.59;101865.31;5055421;28;20481;-82
2022/04/26 14:02:48;;;;;;;7.47;3.80;;;;;;;15.75;42.17;101862.19;5054831;28;20017;-82
2022/04/26 14:05:15;;;;;;;6.90;3.90;;;;;;;15.75;41.16;101866.59;5055912;28;20033;-82
2022/04/26 14:07:41;;;;;;;7.05;3.60;;;;;;;15.55;42.03;101874.84;5054331;28;20029;-81
2022/04/26 14:10:07;;;;;;;8.83;4.23;;;;;;;14.96;41.95;101861.09;5054158;28;20040;-81
2022/04/26 14:12:34;;;;;;;7.10;3.92;;;;;;;14.83;42.73;101870.03;5055416;28;20473;-81
2022/04/26 14:23:11;;;;;;;6.85;3.70;;;;;;;14.87;43.02;101876.06;5055201;28;20055;-81
2022/04/26 14:25:38;;;;;;;4.83;3.43;;;;;;;14.92;41.65;101867.25;5054369;28;20427;-82
2022/04/26 14:28:03;;;;;;;5.95;3.40;;;;;;;14.95;42.60;101877.66;5054447;28;20049;-82
2022/04/26 14:30:29;;;;;;;7.57;3.90;;;;;;;14.92;43.24;101872.47;5055033;28;20032;-82
2022/04/26 14:32:54;;;;;;;6.80;3.60;;;;;;;14.96;42.86;101868.06;5053750;28;20036;-82
2022/04/26 14:35:20;;;;;;;7.70;4.00;;;;;;;14.76;42.16;101884.94;5054885;28;20025;-82
2022/04/26 14:37:45;;;;;;;6.47;3.60;;;;;;;14.68;43.99;101876.38;5054496;28;20505;-81
2022/04/26 14:40:12;;;;;;;4.53;3.00;;;;;;;14.78;44.21;101874.44;5054326;28;20029;-82
2022/04/26 14:42:38;;;;;;;5.00;3.65;;;;;;;14.87;43.74;101879.53;5054248;28;20391;-83
2022/04/26 14:45:04;;;;;;;5.90;3.30;;;;;;;14.92;43.51;101882.94;5054124;28;20091;-82
2022/04/26 14:47:29;;;;;;;5.88;3.80;;;;;;;14.81;42.28;101884.88;5054561;28;20036;-83
2022/04/26 14:49:57;;;;;;;6.30;3.70;;;;;;;14.70;43.13;101882.41;5054517;28;20384;-82
2022/04/26 14:52:22;;;;;;;9.82;4.35;;;;;;;14.40;42.78;101884.56;5053751;28;20020;-81
2022/04/26 14:54:48;;;;;;;7.30;4.00;;;;;;;14.32;43.76;101884.69;5054291;28;20025;-82
2022/04/26 14:57:17;;;;;;;7.00;3.73;;;;;;;14.19;44.15;101880.50;5053710;28;20086;-80
2022/04/26 14:59:46;;;;;;;5.80;3.67;;;;;;;14.23;45.06;101889.19;5051630;28;20043;-81
2022/04/26 15:02:12;;;;;;;3.17;2.60;;;;;;;14.39;45.79;101887.22;5054364;28;20059;-82
2022/04/26 15:04:38;;;;;;;7.13;3.70;;;;;;;14.33;43.86;101890.78;5054188;28;20025;-84
2022/04/26 15:07:03;;;;;;;;;;;;;;;14.23;43.41;101881.38;5053795;28;20469;-83
2022/04/26 15:09:45;;;;;;;5.07;3.50;;;;;;;14.21;44.45;101883.97;5054342;28;20007;-84
2022/04/26 15:17:40;;;;;;;4.45;3.35;;;;;;;14.33;43.48;101891.63;5054272;28;20109;-82
2022/04/26 15:20:06;;;;;;;6.67;3.83;;;;;;;14.08;43.25;101888.50;5053333;28;20461;-83
2022/04/26 15:22:31;;;;;;;5.80;3.33;;;;;;;14.28;43.20;101887.38;5053503;28;20074;-83
2022/04/26 15:24:57;;;;;;;6.30;3.60;;;;;;;14.49;43.26;101878.38;5053653;28;20037;-84
2022/04/26 15:27:23;;;;;;;5.37;3.13;;;;;;;14.70;41.43;101881.56;5052633;28;20051;-84
2022/04/26 15:29:48;;;;;;;5.37;3.33;;;;;;;14.67;41.68;101885.94;5054012;28;20025;-84
2022/04/26 15:32:14;;;;;;;4.67;3.07;;;;;;;14.70;41.45;101887.63;5054499;28;20025;-84
2022/04/26 15:34:40;;;;;;;3.85;3.10;;;;;;;14.81;41.36;101888.31;5053041;28;20115;-83
2022/04/26 15:37:06;;;;;;;3.87;2.97;;;;;;;15.04;41.38;101888.84;5054102;28;20052;-84
2022/04/26 15:39:32;;;;;;;4.07;3.05;;;;;;;15.11;40.60;101890.44;5054029;28;20025;-84
2022/04/26 15:41:59;;;;;;;4.97;3.20;;;;;;;15.25;40.95;101890.22;5051836;28;20481;-84